Captain Koulis — SV5456 — position and weather

sailwx.info

Track history (hours):
 
Tides and Currents Weather Stations Pressure Air Temp Water Temp Dewpoint Dewpoint Depression Visibility Wind Speed Wind Dir Waves Ship Positions

Captain Koulis

Last reported at 2014-Sep-01 06:33 UTC. Time now 2014-Sep-01 13:53 UTC.
Position N 36°24' E 025°26'.

Length 21 m.

Type: Passenger vessel. MMSI: 239173800.

Date/timePositionNaut miles runAvg speedWind from/ knotsBaromVisibWave heightAir tempDewpointWater temp
2014-Sep-01 06:33N 36°24' E 025°26'1 1.0
2014-Sep-01 05:32N 36°25' E 025°25'0 0.2
2014-Sep-01 04:34N 36°25' E 025°25'  
2014-Aug-29 07:05N 36°25' E 025°25'1 1.0
2014-Aug-29 06:32N 36°25' E 025°26'0 0.4
2014-Aug-29 05:21N 36°25' E 025°25'1 0.7
2014-Aug-29 04:33N 36°24' E 025°25'0 0.0
2014-Aug-28 17:29N 36°25' E 025°25'1 0.1
2014-Aug-28 12:27N 36°25' E 025°25'1416.0
2014-Aug-28 11:33N 36°38' E 025°18'5 0.8
2014-Aug-28 05:29N 36°43' E 025°16'0 0.0
2014-Aug-28 04:33N 36°43' E 025°16'1 0.5
2014-Aug-28 03:33N 36°43' E 025°16'0 0.0
2014-Aug-28 02:33N 36°43' E 025°16'0 0.0
2014-Aug-28 01:33N 36°43' E 025°16'0 0.0
2014-Aug-28 00:33N 36°43' E 025°16'0 0.0
2014-Aug-27 23:34N 36°43' E 025°16'0 0.0
2014-Aug-27 22:33N 36°43' E 025°16'0 0.0
2014-Aug-27 21:33N 36°43' E 025°16'0 0.0
2014-Aug-27 20:33N 36°43' E 025°16'0 0.0
2014-Aug-27 19:07N 36°43' E 025°16'0 0.0
2014-Aug-27 18:33N 36°43' E 025°16'0 0.0
2014-Aug-27 17:33N 36°43' E 025°16'0 0.0
2014-Aug-27 16:33N 36°43' E 025°16'20 1.7
2014-Aug-27 04:33N 36°25' E 025°25'0 0.0
2014-Aug-25 11:06N 36°25' E 025°25'0 0.1
2014-Aug-25 07:08N 36°25' E 025°25'1 2.5
2014-Aug-25 06:33N 36°23' E 025°25'0 0.1
2014-Aug-25 05:33N 36°23' E 025°25'1 1.0
2014-Aug-25 04:29N 36°24' E 025°25'0 0.0
2014-Aug-24 06:27N 36°25' E 025°25'2 1.6
2014-Aug-24 05:29N 36°23' E 025°26'1 1.4
2014-Aug-24 04:33N 36°24' E 025°25'1 0.0
2014-Aug-22 17:19N 36°25' E 025°25'0 0.0
2014-Aug-22 07:33N 36°25' E 025°25'  
Track history (hours):
 
Tides and Currents Weather Stations Pressure Air Temp Water Temp Dewpoint Dewpoint Depression Visibility Wind Speed Wind Dir Waves Ship Positions

Captain Koulis

Last reported at 2014-Sep-01 06:33 UTC. Time now 2014-Sep-01 13:53 UTC.
Position N 36°24' E 025°26'.

Length 21 m.

Type: Passenger vessel. MMSI: 239173800.

Date/timePositionNaut miles runAvg speedWind from/ knotsBaromVisibWave heightAir tempDewpointWater temp
2014-Sep-01 06:33N 36°24' E 025°26'1 1.0
2014-Sep-01 05:32N 36°25' E 025°25'0 0.2
2014-Sep-01 04:34N 36°25' E 025°25'  
2014-Aug-29 07:05N 36°25' E 025°25'1 1.0
2014-Aug-29 06:32N 36°25' E 025°26'0 0.4
2014-Aug-29 05:21N 36°25' E 025°25'1 0.7
2014-Aug-29 04:33N 36°24' E 025°25'0 0.0
2014-Aug-28 17:29N 36°25' E 025°25'1 0.1
2014-Aug-28 12:27N 36°25' E 025°25'1416.0
2014-Aug-28 11:33N 36°38' E 025°18'5 0.8
2014-Aug-28 05:29N 36°43' E 025°16'0 0.0
2014-Aug-28 04:33N 36°43' E 025°16'1 0.5
2014-Aug-28 03:33N 36°43' E 025°16'0 0.0
2014-Aug-28 02:33N 36°43' E 025°16'0 0.0
2014-Aug-28 01:33N 36°43' E 025°16'0 0.0
2014-Aug-28 00:33N 36°43' E 025°16'0 0.0
2014-Aug-27 23:34N 36°43' E 025°16'0 0.0
2014-Aug-27 22:33N 36°43' E 025°16'0 0.0
2014-Aug-27 21:33N 36°43' E 025°16'0 0.0
2014-Aug-27 20:33N 36°43' E 025°16'0 0.0
2014-Aug-27 19:07N 36°43' E 025°16'0 0.0
2014-Aug-27 18:33N 36°43' E 025°16'0 0.0
2014-Aug-27 17:33N 36°43' E 025°16'0 0.0
2014-Aug-27 16:33N 36°43' E 025°16'20 1.7
2014-Aug-27 04:33N 36°25' E 025°25'0 0.0
2014-Aug-25 11:06N 36°25' E 025°25'0 0.1
2014-Aug-25 07:08N 36°25' E 025°25'1 2.5
2014-Aug-25 06:33N 36°23' E 025°25'0 0.1
2014-Aug-25 05:33N 36°23' E 025°25'1 1.0
2014-Aug-25 04:29N 36°24' E 025°25'0 0.0
2014-Aug-24 06:27N 36°25' E 025°25'2 1.6
2014-Aug-24 05:29N 36°23' E 025°26'1 1.4
2014-Aug-24 04:33N 36°24' E 025°25'1 0.0
2014-Aug-22 17:19N 36°25' E 025°25'0 0.0
2014-Aug-22 07:33N 36°25' E 025°25'  

Dump ship's entire track history